Time;durP1;ratioP1;P1;durP2;ratioP2;P2;SDS_P1;SDS_P2;PMS_P1;PMS_P2;Temp;Humidity;BMP_temperature;BMP_pressure;BME280_temperature;BME280_humidity;BME280_pressure;Samples;Min_cycle;Max_cycle;Signal;HPM_P1;HPM_P2
2022/10/13 00:04:46;;;;;;;19.40;15.13;;;10.30;99.90;;;;;;10397470;28;20232;-75
2022/10/13 00:09:47;;;;;;;16.10;13.80;;;10.30;99.90;;;;;;10405704;28;20217;-75
2022/10/13 00:14:47;;;;;;;21.23;13.73;;;10.20;99.90;;;;;;10399737;28;20223;-73
2022/10/13 00:19:48;;;;;;;17.67;14.60;;;10.10;99.90;;;;;;10404186;28;20220;-74
2022/10/13 00:24:52;;;;;;;16.17;13.10;;;10.00;99.90;;;;;;10397979;28;20247;-74
2022/10/13 00:29:52;;;;;;;14.70;12.90;;;9.90;99.90;;;;;;10405898;28;20225;-74
2022/10/13 00:34:53;;;;;;;15.97;12.63;;;9.90;99.90;;;;;;10397012;28;20662;-73
2022/10/13 00:39:53;;;;;;;19.53;13.57;;;9.80;99.90;;;;;;10394537;28;20228;-73
2022/10/13 00:45:02;;;;;;;17.17;13.50;;;10.00;99.90;;;;;;10407143;28;20225;-74
2022/10/13 00:50:06;;;;;;;19.03;12.60;;;10.30;99.90;;;;;;10403399;28;20220;-73
2022/10/13 00:55:08;;;;;;;18.63;13.90;;;10.50;99.90;;;;;;10403874;28;20308;-74
2022/10/13 01:00:10;;;;;;;19.30;14.70;;;10.70;99.90;;;;;;10400040;28;20193;-74
2022/10/13 01:05:11;;;;;;;18.83;13.43;;;10.90;99.90;;;;;;10403306;28;20216;-73
2022/10/13 01:10:11;;;;;;;17.03;12.67;;;10.90;99.90;;;;;;10399667;28;20667;-74
2022/10/13 01:15:36;;;;;;;14.57;12.50;;;11.00;99.90;;;;;;10401621;28;20568;-73
2022/10/13 01:20:58;;;;;;;16.23;14.07;;;11.00;99.90;;;;;;10396099;28;20222;-74
2022/10/13 01:26:08;;;;;;;18.10;13.63;;;10.90;99.90;;;;;;10406523;28;20229;-74
2022/10/13 01:31:17;;;;;;;20.07;14.37;;;10.80;99.90;;;;;;10398190;28;20716;-73
2022/10/13 01:36:40;;;;;;;21.27;14.63;;;10.70;99.90;;;;;;10408934;28;20233;-74
2022/10/13 01:41:48;;;;;;;21.03;13.80;;;10.60;99.90;;;;;;10405531;28;20227;-74
2022/10/13 01:46:50;;;;;;;17.50;14.97;;;10.60;99.90;;;;;;10405686;28;20236;-73
2022/10/13 01:51:53;;;;;;;20.37;15.23;;;10.50;99.90;;;;;;10401777;28;20311;-73
2022/10/13 01:56:55;;;;;;;31.83;20.33;;;10.60;99.90;;;;;;10399436;28;20216;-73
2022/10/13 02:02:12;;;;;;;36.53;20.53;;;10.70;99.90;;;;;;10403694;28;20256;-72
2022/10/13 02:07:26;;;;;;;37.70;22.03;;;10.70;99.90;;;;;;10395504;28;20232;-74
2022/10/13 02:12:38;;;;;;;33.70;20.23;;;10.70;99.90;;;;;;10406986;28;20639;-72
2022/10/13 02:17:40;;;;;;;29.80;21.37;;;10.70;99.90;;;;;;10400833;28;20274;-72
2022/10/13 02:22:44;;;;;;;27.83;19.73;;;10.70;99.90;;;;;;10403567;28;20278;-73
2022/10/13 02:27:45;;;;;;;26.93;20.13;;;10.70;99.90;;;;;;10398794;28;20235;-72
2022/10/13 02:32:45;;;;;;;23.23;17.33;;;10.60;99.90;;;;;;10404545;28;20255;-72
2022/10/13 02:37:46;;;;;;;29.90;19.67;;;10.60;99.90;;;;;;10390982;28;20228;-72
2022/10/13 02:42:47;;;;;;;29.67;20.57;;;10.60;99.90;;;;;;10401148;28;20253;-73
2022/10/13 02:47:48;;;;;;;25.97;20.03;;;10.60;99.90;;;;;;10399693;28;20228;-73
2022/10/13 02:52:49;;;;;;;26.60;19.43;;;10.60;99.90;;;;;;10398291;28;20220;-73
2022/10/13 02:57:49;;;;;;;28.47;18.20;;;10.60;99.90;;;;;;10394445;28;20313;-72
2022/10/13 03:02:50;;;;;;;22.30;17.57;;;10.60;99.90;;;;;;10405221;28;20221;-72
2022/10/13 03:07:50;;;;;;;21.00;17.30;;;10.40;99.90;;;;;;10398806;28;20224;-75
2022/10/13 03:12:52;;;;;;;25.47;18.13;;;10.40;99.90;;;;;;10403502;28;20216;-75
2022/10/13 03:17:53;;;;;;;26.03;17.77;;;10.40;99.90;;;;;;10398221;28;20224;-74
2022/10/13 03:22:54;;;;;;;28.63;18.10;;;10.40;99.90;;;;;;10404565;28;20680;-73
2022/10/13 03:27:55;;;;;;;23.03;15.73;;;10.40;99.90;;;;;;10392093;28;20286;-73
2022/10/13 03:32:55;;;;;;;26.63;17.30;;;10.40;99.90;;;;;;10400900;28;20761;-73
2022/10/13 03:37:56;;;;;;;24.23;16.80;;;10.40;99.90;;;;;;10398179;28;20220;-73
2022/10/13 03:42:57;;;;;;;24.97;17.53;;;10.40;99.90;;;;;;10400490;28;20246;-71
2022/10/13 03:47:57;;;;;;;22.17;16.97;;;10.50;99.90;;;;;;10398910;28;20306;-72
2022/10/13 03:52:58;;;;;;;25.10;18.33;;;10.40;99.90;;;;;;10400688;28;20224;-72
2022/10/13 03:57:58;;;;;;;18.97;15.77;;;10.40;99.90;;;;;;10405640;28;20229;-73
2022/10/13 04:02:59;;;;;;;20.60;15.87;;;10.40;99.90;;;;;;10400925;28;20324;-73
2022/10/13 04:07:59;;;;;;;21.10;15.70;;;10.40;99.90;;;;;;10394352;28;20339;-71
2022/10/13 04:13:00;;;;;;;21.33;15.97;;;10.40;99.90;;;;;;10392574;28;20221;-71
2022/10/13 04:18:01;;;;;;;22.57;16.97;;;10.40;99.90;;;;;;10391245;28;20217;-72
2022/10/13 04:23:01;;;;;;;18.63;15.67;;;10.50;99.90;;;;;;10402014;28;20215;-73
2022/10/13 04:28:04;;;;;;;26.33;17.97;;;10.50;99.90;;;;;;10398136;28;20700;-72
2022/10/13 04:33:06;;;;;;;26.50;18.10;;;10.60;99.90;;;;;;10407562;28;20266;-73
2022/10/13 04:38:07;;;;;;;21.50;16.17;;;10.70;99.90;;;;;;10403524;28;20306;-71
2022/10/13 04:43:07;;;;;;;21.77;16.83;;;10.70;99.90;;;;;;10401269;28;20255;-74
2022/10/13 04:48:08;;;;;;;25.03;17.17;;;10.70;99.90;;;;;;10395446;28;20279;-74
2022/10/13 04:53:09;;;;;;;19.97;16.10;;;10.60;99.90;;;;;;10405444;28;20631;-73
2022/10/13 04:58:09;;;;;;;21.00;16.40;;;10.60;99.90;;;;;;10405505;28;20235;-73
2022/10/13 05:03:10;;;;;;;24.03;18.30;;;10.50;99.90;;;;;;10399457;28;20229;-73
2022/10/13 05:08:10;;;;;;;22.70;17.73;;;10.40;99.90;;;;;;10394466;28;20229;-73
2022/10/13 05:13:14;;;;;;;21.87;16.50;;;10.30;99.90;;;;;;10388968;28;20229;-72
2022/10/13 05:18:15;;;;;;;21.13;16.57;;;10.30;99.90;;;;;;10393612;28;20261;-72
2022/10/13 05:23:15;;;;;;;23.97;17.03;;;10.30;99.90;;;;;;10389362;28;20324;-71
2022/10/13 05:28:16;;;;;;;21.03;16.93;;;10.30;99.90;;;;;;10390405;28;20238;-71
2022/10/13 05:33:17;;;;;;;20.33;15.90;;;10.30;99.90;;;;;;10392803;28;20225;-71
2022/10/13 05:38:17;;;;;;;20.57;16.47;;;10.30;99.90;;;;;;10400927;28;20691;-72
2022/10/13 05:43:18;;;;;;;22.53;15.60;;;10.30;99.90;;;;;;10399242;28;20224;-73
2022/10/13 05:48:18;;;;;;;20.77;15.77;;;10.30;99.90;;;;;;10399504;28;20267;-72
2022/10/13 05:53:21;;;;;;;23.13;16.13;;;10.40;99.90;;;;;;10402539;28;20545;-73
2022/10/13 05:58:23;;;;;;;21.60;17.03;;;10.40;99.90;;;;;;10392527;28;20227;-72
2022/10/13 06:03:24;;;;;;;27.93;20.70;;;10.40;99.90;;;;;;10405919;28;20221;-72
2022/10/13 06:08:25;;;;;;;23.73;19.03;;;10.50;99.90;;;;;;10403788;28;20213;-72
2022/10/13 06:13:25;;;;;;;32.17;21.83;;;10.50;99.90;;;;;;10402255;28;20209;-74
2022/10/13 06:18:27;;;;;;;27.40;20.23;;;10.50;99.90;;;;;;10398835;28;20681;-70
2022/10/13 06:23:27;;;;;;;27.53;19.73;;;10.70;99.90;;;;;;10395226;28;20224;-74
2022/10/13 06:28:28;;;;;;;30.13;17.73;;;10.80;99.90;;;;;;10399993;28;20220;-71
2022/10/13 06:33:28;;;;;;;25.67;17.33;;;10.90;99.90;;;;;;10403749;28;20217;-72
2022/10/13 06:38:30;;;;;;;25.73;17.27;;;10.90;99.90;;;;;;10398483;28;20267;-70
2022/10/13 06:43:31;;;;;;;24.23;16.47;;;11.00;99.90;;;;;;10388905;28;20217;-73
2022/10/13 06:48:31;;;;;;;19.87;15.33;;;11.10;99.90;;;;;;10401479;28;20220;-67
2022/10/13 06:53:32;;;;;;;18.20;15.73;;;11.30;99.90;;;;;;10392258;28;20215;-67
2022/10/13 06:58:36;;;;;;;19.43;14.80;;;11.40;99.90;;;;;;10390774;28;20217;-67
2022/10/13 07:03:37;;;;;;;21.77;15.43;;;11.40;99.90;;;;;;10410749;28;20833;-66
2022/10/13 07:08:38;;;;;;;23.00;17.53;;;11.50;99.90;;;;;;10403789;28;20220;-67
2022/10/13 07:13:42;;;;;;;20.93;16.20;;;11.60;99.90;;;;;;10398505;28;20251;-73
2022/10/13 07:18:42;;;;;;;22.53;17.20;;;11.80;99.90;;;;;;10391225;28;20238;-73
2022/10/13 07:23:43;;;;;;;22.27;17.93;;;11.90;99.90;;;;;;10401834;28;20219;-72
2022/10/13 07:28:44;;;;;;;24.07;17.77;;;12.00;99.90;;;;;;10399355;28;20295;-72
2022/10/13 07:33:47;;;;;;;21.10;16.83;;;12.10;99.90;;;;;;10401456;28;20240;-73
2022/10/13 07:38:48;;;;;;;20.17;15.30;;;12.20;99.90;;;;;;10396850;28;20212;-72
2022/10/13 07:43:52;;;;;;;19.50;16.03;;;12.20;99.90;;;;;;10400317;28;20246;-73
2022/10/13 07:48:53;;;;;;;19.60;16.53;;;12.10;99.90;;;;;;10397500;28;20245;-72
2022/10/13 07:53:54;;;;;;;21.10;15.00;;;12.20;99.90;;;;;;10397164;28;20687;-73
2022/10/13 07:58:55;;;;;;;20.80;15.87;;;12.20;99.90;;;;;;10399820;28;20221;-72
2022/10/13 08:03:55;;;;;;;17.63;15.37;;;12.40;99.90;;;;;;10401341;28;20233;-72
2022/10/13 08:08:56;;;;;;;22.87;16.00;;;12.50;99.90;;;;;;10409131;28;20213;-72
2022/10/13 08:14:00;;;;;;;23.17;16.97;;;12.60;99.90;;;;;;10410714;28;20228;-72
2022/10/13 08:19:01;;;;;;;20.07;16.27;;;12.60;99.90;;;;;;10410381;28;20267;-72
2022/10/13 08:24:01;;;;;;;22.10;18.17;;;12.70;99.90;;;;;;10400088;28;20229;-72
2022/10/13 08:29:02;;;;;;;22.27;18.70;;;12.80;99.90;;;;;;10405958;28;20242;-72
2022/10/13 08:34:03;;;;;;;22.00;16.80;;;12.80;99.90;;;;;;10409274;28;20703;-72
2022/10/13 08:39:04;;;;;;;21.33;17.83;;;12.90;99.90;;;;;;10406175;28;20212;-72
2022/10/13 08:44:34;;;;;;;23.67;19.53;;;13.10;99.90;;;;;;10409597;28;20227;-73
2022/10/13 08:49:35;;;;;;;20.53;17.17;;;13.20;99.90;;;;;;10409559;28;20213;-72
2022/10/13 08:54:37;;;;;;;24.47;19.20;;;13.40;99.90;;;;;;10409011;28;20217;-72
2022/10/13 08:59:38;;;;;;;21.07;16.57;;;13.40;99.90;;;;;;10403424;28;20216;-72
2022/10/13 09:04:43;;;;;;;23.10;18.73;;;13.50;99.90;;;;;;10400685;28;20221;-72
2022/10/13 09:09:43;;;;;;;27.57;20.37;;;13.50;99.90;;;;;;10396786;28;20336;-71
2022/10/13 09:15:21;;;;;;;26.70;19.63;;;13.50;99.90;;;;;;10402991;28;20222;-71
2022/10/13 09:20:26;;;;;;;26.57;20.03;;;13.70;99.90;;;;;;10393113;28;20750;-72
2022/10/13 09:25:27;;;;;;;24.40;21.33;;;13.60;99.90;;;;;;10404476;28;20228;-72
2022/10/13 09:30:33;;;;;;;28.13;20.87;;;13.40;99.90;;;;;;10403136;28;20225;-72
2022/10/13 09:35:46;;;;;;;28.83;21.03;;;13.30;99.90;;;;;;10405858;28;20249;-71
2022/10/13 09:41:02;;;;;;;25.83;20.60;;;13.20;99.90;;;;;;10376702;28;20229;-72
2022/10/13 09:46:44;;;;;;;31.83;23.33;;;13.20;99.90;;;;;;10403340;28;20282;-72
2022/10/13 09:51:45;;;;;;;27.17;22.63;;;13.20;99.90;;;;;;10396013;28;20335;-72
2022/10/13 09:56:51;;;;;;;27.97;22.73;;;13.20;99.90;;;;;;10402922;28;20213;-71
2022/10/13 10:01:54;;;;;;;27.37;22.87;;;13.30;99.90;;;;;;10401834;28;20216;-72
2022/10/13 10:06:55;;;;;;;25.17;21.30;;;13.30;99.90;;;;;;10419264;28;20219;-73
2022/10/13 10:11:57;;;;;;;28.73;23.57;;;13.40;99.90;;;;;;10422778;28;20221;-73
2022/10/13 10:17:35;;;;;;;28.00;22.40;;;13.50;99.90;;;;;;10398260;28;20223;-72
2022/10/13 10:22:50;;;;;;;28.13;22.10;;;13.40;99.90;;;;;;10402620;28;20688;-73
2022/10/13 10:28:17;;;;;;;34.87;25.47;;;13.50;99.90;;;;;;10395298;28;20215;-72
2022/10/13 10:33:28;;;;;;;30.30;24.93;;;13.50;99.90;;;;;;10400552;28;20224;-71
2022/10/13 10:38:39;;;;;;;34.07;25.70;;;13.50;99.90;;;;;;10395563;28;20315;-72
2022/10/13 10:43:52;;;;;;;37.57;27.10;;;13.50;99.90;;;;;;10402836;28;20223;-72
2022/10/13 10:49:25;;;;;;;40.30;29.00;;;13.50;99.90;;;;;;10399641;28;20209;-70
2022/10/13 10:54:54;;;;;;;37.90;28.77;;;13.50;99.90;;;;;;10379737;28;20259;-72
2022/10/13 11:00:13;;;;;;;29.10;23.00;;;13.70;99.90;;;;;;10381322;28;20601;-71
2022/10/13 11:05:15;;;;;;;31.90;24.63;;;13.80;99.90;;;;;;10397721;28;20224;-70
2022/10/13 11:10:20;;;;;;;29.30;23.07;;;13.90;99.90;;;;;;10389925;28;20227;-70
2022/10/13 11:15:23;;;;;;;28.20;20.70;;;14.10;99.90;;;;;;10392998;28;20195;-73
2022/10/13 11:20:33;;;;;;;23.10;19.33;;;14.60;99.90;;;;;;10389113;28;20569;-72
2022/10/13 11:25:50;;;;;;;23.60;18.47;;;15.30;99.90;;;;;;10376069;28;20240;-72
2022/10/13 11:30:54;;;;;;;20.63;17.33;;;15.80;99.90;;;;;;10390837;28;20244;-72
2022/10/13 11:35:54;;;;;;;28.57;19.87;;;16.00;99.90;;;;;;10403222;28;20279;-72
2022/10/13 11:41:15;;;;;;;23.47;17.90;;;16.10;99.90;;;;;;10400883;28;20766;-71
2022/10/13 11:46:23;;;;;;;22.37;16.13;;;16.30;99.90;;;;;;10406969;28;20229;-71
2022/10/13 11:51:30;;;;;;;22.27;16.23;;;16.40;99.90;;;;;;10408777;28;20312;-71
2022/10/13 11:56:34;;;;;;;22.20;16.20;;;16.50;99.90;;;;;;10405646;28;20224;-72
2022/10/13 12:01:35;;;;;;;18.40;13.80;;;16.80;99.90;;;;;;10402079;28;20226;-71
2022/10/13 12:06:35;;;;;;;18.30;15.50;;;16.80;99.90;;;;;;10404371;28;20604;-72
2022/10/13 12:11:38;;;;;;;22.77;14.37;;;16.70;99.90;;;;;;10405858;28;20311;-73
2022/10/13 12:17:01;;;;;;;18.10;13.73;;;17.00;99.90;;;;;;10401794;28;20238;-72
2022/10/13 12:22:02;;;;;;;17.63;12.93;;;17.30;99.90;;;;;;10421167;28;20206;-74
2022/10/13 12:27:10;;;;;;;15.77;13.50;;;17.50;99.90;;;;;;10387973;28;20653;-74
2022/10/13 12:32:30;;;;;;;15.97;14.30;;;17.60;99.90;;;;;;10402490;28;20306;-74
2022/10/13 12:37:32;;;;;;;17.80;14.60;;;17.30;99.90;;;;;;10409946;28;20257;-73
2022/10/13 12:42:36;;;;;;;19.13;14.87;;;17.10;99.90;;;;;;10404401;28;20229;-73
2022/10/13 12:47:38;;;;;;;15.97;13.63;;;17.00;99.90;;;;;;10409457;28;20705;-73
2022/10/13 12:52:39;;;;;;;16.27;14.57;;;17.20;99.90;;;;;;10395653;28;20222;-73
2022/10/13 12:57:40;;;;;;;20.60;14.50;;;17.40;99.90;;;;;;10397512;28;20229;-73
2022/10/13 13:02:41;;;;;;;23.30;15.13;;;17.40;99.90;;;;;;10398040;28;20226;-74
2022/10/13 13:07:51;;;;;;;20.50;15.70;;;17.10;99.90;;;;;;10393447;28;20706;-74
2022/10/13 13:12:53;;;;;;;16.30;14.47;;;16.70;99.90;;;;;;10394117;28;20216;-74
2022/10/13 13:18:14;;;;;;;18.13;15.00;;;16.50;99.90;;;;;;10389845;28;20225;-76
2022/10/13 13:23:17;;;;;;;21.17;15.10;;;16.40;99.90;;;;;;10388377;28;20221;-75
2022/10/13 13:28:18;;;;;;;20.13;15.63;;;16.40;99.90;;;;;;10387992;28;20613;-75
2022/10/13 13:33:18;;;;;;;18.43;14.57;;;16.30;99.90;;;;;;10395022;28;20216;-75
2022/10/13 13:38:19;;;;;;;18.17;14.50;;;16.40;99.90;;;;;;10398417;28;20213;-75
2022/10/13 13:43:20;;;;;;;19.63;14.30;;;16.50;99.90;;;;;;10392837;28;20795;-75
2022/10/13 13:48:20;;;;;;;20.20;14.23;;;16.50;99.90;;;;;;10385185;28;20264;-75
2022/10/13 13:53:21;;;;;;;19.93;13.93;;;16.60;99.90;;;;;;10386981;28;20646;-75
2022/10/13 13:58:22;;;;;;;23.23;13.80;;;16.70;99.90;;;;;;10394738;28;20283;-74
2022/10/13 14:03:22;;;;;;;20.87;14.57;;;16.60;99.90;;;;;;10392525;28;20884;-75
2022/10/13 14:08:24;;;;;;;19.07;13.40;;;16.60;99.90;;;;;;10389917;28;20511;-75
2022/10/13 14:13:24;;;;;;;17.07;13.20;;;16.60;99.90;;;;;;10384603;28;20284;-75
2022/10/13 14:18:25;;;;;;;20.03;14.17;;;16.60;99.90;;;;;;10388110;28;20220;-75
2022/10/13 14:23:26;;;;;;;23.30;14.43;;;16.50;99.90;;;;;;10385160;28;20260;-75
2022/10/13 14:28:26;;;;;;;16.90;13.57;;;16.40;99.90;;;;;;10388938;28;20557;-75
2022/10/13 14:33:27;;;;;;;20.93;14.47;;;16.30;99.90;;;;;;10383749;28;20213;-75
2022/10/13 14:38:27;;;;;;;17.43;13.33;;;16.20;99.90;;;;;;10388642;28;20223;-74
2022/10/13 14:43:29;;;;;;;21.57;14.33;;;16.20;99.90;;;;;;10390422;28;20227;-74
2022/10/13 14:48:31;;;;;;;15.40;13.13;;;16.40;99.90;;;;;;10382875;28;20248;-75
2022/10/13 14:53:33;;;;;;;21.57;14.60;;;16.40;99.90;;;;;;10388406;28;20738;-75
2022/10/13 14:58:35;;;;;;;23.83;14.90;;;16.40;99.90;;;;;;10383461;28;20229;-75
2022/10/13 15:03:36;;;;;;;19.30;13.53;;;16.40;99.90;;;;;;10388153;28;20252;-74
2022/10/13 15:08:36;;;;;;;18.90;13.73;;;16.30;99.90;;;;;;10381537;28;20317;-74
2022/10/13 15:13:38;;;;;;;21.10;15.67;;;16.20;99.90;;;;;;10389296;28;20666;-73
2022/10/13 15:18:38;;;;;;;24.17;16.50;;;16.00;99.90;;;;;;10382478;28;20224;-74
2022/10/13 15:23:39;;;;;;;24.77;17.17;;;15.90;99.90;;;;;;10391139;28;20212;-74
2022/10/13 15:28:42;;;;;;;19.67;15.40;;;15.90;99.90;;;;;;10390379;28;20223;-75
2022/10/13 15:33:51;;;;;;;22.33;17.17;;;15.90;99.90;;;;;;10382275;28;20731;-75
2022/10/13 15:38:52;;;;;;;20.47;16.00;;;15.80;99.90;;;;;;10431460;28;20800;-75
2022/10/13 15:43:53;;;;;;;22.77;18.50;;;15.80;99.90;;;;;;10396894;28;20217;-75
2022/10/13 15:48:54;;;;;;;21.63;17.67;;;15.70;99.90;;;;;;10394899;28;20240;-74
2022/10/13 15:53:54;;;;;;;21.50;19.20;;;15.60;99.90;;;;;;10382779;28;20224;-73
2022/10/13 15:58:55;;;;;;;22.00;18.10;;;15.50;99.90;;;;;;10387483;28;20251;-75
2022/10/13 16:03:56;;;;;;;23.33;17.93;;;15.40;99.90;;;;;;10389813;28;20766;-75
2022/10/13 16:08:56;;;;;;;21.77;19.23;;;15.30;99.90;;;;;;10387326;28;20232;-74
2022/10/13 16:13:57;;;;;;;27.70;20.33;;;15.10;99.90;;;;;;10381605;28;20237;-75
2022/10/13 16:18:59;;;;;;;30.23;20.40;;;15.00;99.90;;;;;;10385863;28;20740;-75
2022/10/13 16:23:59;;;;;;;26.67;22.20;;;14.90;99.90;;;;;;10384903;28;20219;-74
2022/10/13 16:29:00;;;;;;;29.43;22.40;;;14.80;99.90;;;;;;10393147;28;20222;-74
2022/10/13 16:34:01;;;;;;;27.13;20.77;;;14.70;99.90;;;;;;10390589;28;20221;-74
2022/10/13 16:39:01;;;;;;;28.97;23.03;;;14.60;99.90;;;;;;10393258;28;20314;-74
2022/10/13 16:44:05;;;;;;;32.77;25.77;;;14.50;99.90;;;;;;10388833;28;20904;-75
2022/10/13 16:49:06;;;;;;;31.37;23.93;;;14.40;99.90;;;;;;10392252;28;20900;-74
2022/10/13 16:54:08;;;;;;;30.27;23.17;;;14.30;99.90;;;;;;10390647;28;20217;-74
2022/10/13 16:59:09;;;;;;;25.53;22.50;;;14.30;99.90;;;;;;10392697;28;20248;-75
2022/10/13 17:04:09;;;;;;;35.37;26.97;;;14.20;99.90;;;;;;10388963;28;20259;-75
2022/10/13 17:09:10;;;;;;;29.73;25.60;;;14.20;99.90;;;;;;10391671;28;20243;-75
2022/10/13 17:14:11;;;;;;;28.97;25.90;;;14.10;99.90;;;;;;10390723;28;20245;-75
2022/10/13 17:19:11;;;;;;;37.17;28.13;;;14.10;99.90;;;;;;10389520;28;20224;-74
2022/10/13 17:24:12;;;;;;;41.30;28.87;;;14.00;99.90;;;;;;10394096;28;20355;-75
2022/10/13 17:29:12;;;;;;;32.87;28.17;;;14.00;99.90;;;;;;10388796;28;20719;-75
2022/10/13 17:34:16;;;;;;;31.07;25.97;;;13.90;99.90;;;;;;10388132;28;20228;-75
2022/10/13 17:39:16;;;;;;;38.30;29.30;;;14.00;99.90;;;;;;10392968;28;20354;-75
2022/10/13 17:44:19;;;;;;;35.87;26.87;;;14.00;99.90;;;;;;10397706;28;20370;-75
2022/10/13 17:49:20;;;;;;;30.70;25.77;;;14.00;99.90;;;;;;10436658;28;20217;-74
2022/10/13 17:54:20;;;;;;;30.37;22.60;;;14.00;99.90;;;;;;10395886;28;20224;-74
2022/10/13 17:59:21;;;;;;;36.30;25.83;;;14.00;99.90;;;;;;10392015;28;20309;-74
2022/10/13 18:04:22;;;;;;;34.70;25.97;;;14.00;99.90;;;;;;10395160;28;20696;-74
2022/10/13 18:09:23;;;;;;;33.87;26.70;;;13.90;99.90;;;;;;10389781;28;20220;-74
2022/10/13 18:14:24;;;;;;;30.73;23.93;;;13.90;99.90;;;;;;10386785;28;20303;-75
2022/10/13 18:19:24;;;;;;;29.27;23.47;;;13.90;99.90;;;;;;10389585;28;20286;-75
2022/10/13 18:24:25;;;;;;;29.40;24.87;;;13.90;99.90;;;;;;10386447;28;20229;-75
2022/10/13 18:29:25;;;;;;;30.53;24.40;;;13.90;99.90;;;;;;10388247;28;20220;-75
2022/10/13 18:34:26;;;;;;;36.60;25.83;;;13.90;99.90;;;;;;10385951;28;20281;-76
2022/10/13 18:39:28;;;;;;;34.40;25.77;;;13.90;99.90;;;;;;10383277;28;20308;-75
2022/10/13 18:44:28;;;;;;;32.40;23.63;;;13.90;99.90;;;;;;10389506;28;20240;-75
2022/10/13 18:49:32;;;;;;;34.83;25.53;;;13.90;99.90;;;;;;10385011;28;20232;-76
2022/10/13 18:54:32;;;;;;;37.80;25.63;;;13.90;99.90;;;;;;10387804;28;20220;-75
2022/10/13 18:59:37;;;;;;;33.07;26.73;;;13.90;99.90;;;;;;10383110;28;20232;-75
2022/10/13 19:04:38;;;;;;;39.67;30.93;;;13.90;99.90;;;;;;10388131;28;20243;-74
2022/10/13 19:09:39;;;;;;;37.30;28.57;;;13.90;99.90;;;;;;10381030;28;20244;-75
2022/10/13 19:14:40;;;;;;;34.60;26.63;;;13.90;99.90;;;;;;10389380;28;20231;-75
2022/10/13 19:19:41;;;;;;;35.43;26.00;;;13.90;99.90;;;;;;10381060;28;20221;-75
2022/10/13 19:24:42;;;;;;;33.70;25.27;;;13.90;99.90;;;;;;10390263;28;20290;-75
2022/10/13 19:29:42;;;;;;;30.83;20.97;;;13.90;99.90;;;;;;10388487;28;20266;-75
2022/10/13 19:34:43;;;;;;;24.43;18.83;;;13.90;99.90;;;;;;10389473;28;20223;-74
2022/10/13 19:39:44;;;;;;;19.30;16.00;;;13.80;99.90;;;;;;10393344;28;20220;-74
2022/10/13 19:44:44;;;;;;;22.17;15.80;;;13.80;99.90;;;;;;10394471;28;20691;-74
2022/10/13 19:49:46;;;;;;;19.97;17.87;;;13.70;99.90;;;;;;10388255;28;20217;-74
2022/10/13 19:54:46;;;;;;;19.97;14.73;;;13.60;99.90;;;;;;10389275;28;20224;-75
2022/10/13 19:59:47;;;;;;;17.60;13.50;;;13.60;99.90;;;;;;10401023;28;20668;-75
2022/10/13 20:04:47;;;;;;;20.23;12.80;;;13.50;99.90;;;;;;10395322;28;20233;-75
2022/10/13 20:09:48;;;;;;;17.10;11.50;;;13.50;99.90;;;;;;10387707;28;20216;-75
2022/10/13 20:14:49;;;;;;;10.63;9.13;;;13.40;99.90;;;;;;10389966;28;20838;-75
2022/10/13 20:19:49;;;;;;;11.43;9.23;;;13.40;99.90;;;;;;10396916;28;20398;-74
2022/10/13 20:24:50;;;;;;;12.63;10.17;;;13.40;99.90;;;;;;10387918;28;20291;-75
2022/10/13 20:29:51;;;;;;;13.33;10.30;;;13.30;99.90;;;;;;10392617;28;20310;-75
2022/10/13 20:34:52;;;;;;;14.57;11.73;;;13.30;99.90;;;;;;10388077;28;20252;-75
2022/10/13 20:39:52;;;;;;;15.43;11.73;;;13.30;99.90;;;;;;10394893;28;20227;-76
2022/10/13 20:44:53;;;;;;;13.47;11.00;;;13.30;99.90;;;;;;10387829;28;20573;-75
2022/10/13 20:49:53;;;;;;;19.13;13.77;;;13.30;99.90;;;;;;10394353;28;20627;-75
2022/10/13 20:54:54;;;;;;;16.80;13.57;;;13.30;99.90;;;;;;10388962;28;20287;-75
2022/10/13 20:59:54;;;;;;;20.47;14.73;;;13.30;99.90;;;;;;10393648;28;20225;-75
2022/10/13 21:04:55;;;;;;;17.00;14.00;;;13.30;99.90;;;;;;10386492;28;20229;-75
2022/10/13 21:09:56;;;;;;;17.63;14.50;;;13.20;99.90;;;;;;10391310;28;20213;-75
2022/10/13 21:14:56;;;;;;;20.17;13.83;;;13.20;99.90;;;;;;10386967;28;20221;-75
2022/10/13 21:19:57;;;;;;;17.57;13.80;;;13.10;99.90;;;;;;10392915;28;20247;-74
2022/10/13 21:24:58;;;;;;;15.43;13.67;;;13.10;99.90;;;;;;10394449;28;20228;-75
2022/10/13 21:29:58;;;;;;;17.53;14.17;;;13.10;99.90;;;;;;10390993;28;20227;-74
2022/10/13 21:34:59;;;;;;;16.03;13.23;;;13.10;99.90;;;;;;10396210;28;20213;-74
2022/10/13 21:40:00;;;;;;;15.20;12.47;;;13.10;99.90;;;;;;10391544;28;20351;-75
2022/10/13 21:45:00;;;;;;;16.73;14.93;;;13.10;99.90;;;;;;10395059;28;20284;-74
2022/10/13 21:50:03;;;;;;;16.87;15.00;;;13.20;99.90;;;;;;10393753;28;20219;-75
2022/10/13 21:55:04;;;;;;;18.97;16.20;;;13.10;99.90;;;;;;10393276;28;20221;-75
2022/10/13 22:00:07;;;;;;;19.90;16.60;;;13.20;99.90;;;;;;10394815;28;20224;-75
2022/10/13 22:05:08;;;;;;;20.57;16.77;;;13.20;99.90;;;;;;10391564;28;20286;-74
2022/10/13 22:10:09;;;;;;;23.90;17.10;;;13.20;99.90;;;;;;10388286;28;20224;-75
2022/10/13 22:15:10;;;;;;;21.07;17.53;;;13.20;99.90;;;;;;10387596;28;20227;-75
2022/10/13 22:20:11;;;;;;;22.90;17.50;;;13.30;99.90;;;;;;10384231;28;20610;-75
2022/10/13 22:25:11;;;;;;;20.93;17.53;;;13.30;99.90;;;;;;10387723;28;20211;-75
2022/10/13 22:30:12;;;;;;;19.43;16.80;;;13.30;99.90;;;;;;10383575;28;20186;-73
2022/10/13 22:35:12;;;;;;;21.73;17.97;;;13.40;99.90;;;;;;10391955;28;20189;-73
2022/10/13 22:40:13;;;;;;;22.17;17.63;;;13.40;99.90;;;;;;10391778;28;20272;-75
2022/10/13 22:45:17;;;;;;;20.87;17.50;;;13.40;99.90;;;;;;10386286;28;20654;-75
2022/10/13 22:50:18;;;;;;;23.23;18.13;;;13.40;99.90;;;;;;10386819;28;20641;-75
2022/10/13 22:55:18;;;;;;;18.37;16.40;;;13.40;99.90;;;;;;10388053;28;20200;-75
2022/10/13 23:00:19;;;;;;;20.40;16.87;;;13.40;99.90;;;;;;10386388;28;20189;-75
2022/10/13 23:05:20;;;;;;;20.40;17.13;;;13.50;99.90;;;;;;10386905;28;20597;-75
2022/10/13 23:10:20;;;;;;;22.53;17.87;;;13.50;99.90;;;;;;10386106;28;20186;-75
2022/10/13 23:15:21;;;;;;;24.03;17.47;;;13.50;99.90;;;;;;10387439;28;20347;-75
2022/10/13 23:20:21;;;;;;;22.30;17.60;;;13.50;99.90;;;;;;10387809;28;20184;-75
2022/10/13 23:25:22;;;;;;;20.20;17.20;;;13.50;99.90;;;;;;10390491;28;20227;-75
2022/10/13 23:30:26;;;;;;;23.67;18.53;;;13.50;99.90;;;;;;10385468;28;20263;-76
2022/10/13 23:35:26;;;;;;;20.43;16.80;;;13.50;99.90;;;;;;10398261;28;20236;-75
2022/10/13 23:40:27;;;;;;;20.93;16.30;;;13.50;99.90;;;;;;10398706;28;20216;-74
2022/10/13 23:45:27;;;;;;;20.80;17.03;;;13.50;99.90;;;;;;10395096;28;20282;-74
2022/10/13 23:50:28;;;;;;;27.47;18.03;;;13.50;99.90;;;;;;10395031;28;20563;-74
2022/10/13 23:55:29;;;;;;;19.53;17.07;;;13.50;99.90;;;;;;10394253;28;20224;-74
